Time;durP1;ratioP1;P1;durP2;ratioP2;P2;SDS_P1;SDS_P2;PMS_P1;PMS_P2;Temp;Humidity;BMP_temperature;BMP_pressure;BME280_temperature;BME280_humidity;BME280_pressure;Samples;Min_cycle;Max_cycle;Signal;HPM_P1;HPM_P2
2021/10/31 00:00:12;;;;;;;;;2.00;2.00;;;;;19.47;53.43;100373.91;5099270;27;45359;-66
2021/10/31 00:02:38;;;;;;;;;3.00;3.00;;;;;19.47;53.33;100387.22;5099181;27;45189;-67
2021/10/31 00:05:05;;;;;;;;;3.33;2.00;;;;;19.47;53.24;100389.91;5098875;27;46409;-67
2021/10/31 00:07:31;;;;;;;;;3.67;2.67;;;;;19.47;53.23;100381.91;5098950;27;45960;-66
2021/10/31 00:09:56;;;;;;;;;3.00;2.67;;;;;19.47;53.49;100370.34;5098875;27;45326;-67
2021/10/31 00:12:21;;;;;;;;;2.67;2.00;;;;;19.47;53.15;100370.34;5098661;27;45411;-66
2021/10/31 00:14:47;;;;;;;;;2.00;2.00;;;;;19.46;53.26;100372.13;5098302;27;46826;-67
2021/10/31 00:17:13;;;;;;;;;3.00;3.00;;;;;19.46;53.01;100382.78;5098669;27;45443;-66
2021/10/31 00:19:38;;;;;;;;;5.00;3.33;;;;;19.46;53.40;100379.28;5098800;27;45323;-66
2021/10/31 00:22:04;;;;;;;;;2.00;2.00;;;;;19.45;53.21;100381.06;5098897;27;45379;-67
2021/10/31 00:24:30;;;;;;;;;2.67;2.67;;;;;19.46;53.60;100382.78;5098532;27;46132;-67
2021/10/31 00:26:55;;;;;;;;;1.00;1.00;;;;;19.46;53.24;100380.13;5098483;27;45384;-66
2021/10/31 00:29:20;;;;;;;;;4.00;3.00;;;;;19.46;53.09;100380.13;5098627;27;45631;-66
2021/10/31 00:31:46;;;;;;;;;4.00;2.00;;;;;19.46;53.25;100382.78;5098519;27;45264;-64
2021/10/31 00:34:12;;;;;;;;;3.33;1.67;;;;;19.47;53.17;100381.00;5098376;27;45300;-66
2021/10/31 00:36:37;;;;;;;;;3.00;3.00;;;;;19.46;53.34;100368.63;5098554;27;45292;-66
2021/10/31 00:39:04;;;;;;;;;2.00;2.00;;;;;19.46;53.17;100373.94;5098460;27;45609;-67
2021/10/31 00:41:31;;;;;;;;;1.67;1.67;;;;;19.45;53.29;100367.72;5098932;27;45364;-67
2021/10/31 00:43:56;;;;;;;;;2.33;2.33;;;;;19.46;53.16;100381.94;5098157;27;46008;-66
2021/10/31 00:46:22;;;;;;;;;2.33;2.00;;;;;19.46;53.21;100381.94;5097853;27;45331;-66
2021/10/31 00:48:48;;;;;;;;;2.00;2.00;;;;;19.46;53.40;100382.78;5098124;27;45365;-66
2021/10/31 00:51:15;;;;;;;;;2.00;2.00;;;;;19.45;53.09;100383.72;5098304;27;45381;-66
2021/10/31 00:53:42;;;;;;;;;3.00;3.00;;;;;19.46;53.21;100381.94;5097887;27;46152;-65
2021/10/31 00:56:09;;;;;;;;;1.67;1.67;;;;;19.46;53.34;100385.47;5098102;27;45389;-66
2021/10/31 00:58:34;;;;;;;;;1.33;1.33;;;;;19.45;53.40;100370.41;5098269;27;45403;-67
2021/10/31 01:01:00;;;;;;;;;2.67;2.67;;;;;19.44;53.26;100368.63;5097984;27;45490;-66
2021/10/31 01:03:26;;;;;;;;;2.00;1.67;;;;;19.45;53.21;100367.72;5097719;27;47026;-67
2021/10/31 01:05:57;;;;;;;;;2.00;2.00;;;;;19.44;53.28;100366.84;5097789;27;45574;-66
2021/10/31 01:08:42;;;;;;;;;2.67;2.67;;;;;19.44;53.17;100355.31;5098189;27;45196;-65
2021/10/31 01:11:50;;;;;;;;;2.00;2.00;;;;;19.45;53.35;100351.75;5098238;27;45439;-67
2021/10/31 01:14:46;;;;;;;;;4.00;3.00;;;;;19.44;53.31;100360.63;5097573;27;47147;-66
2021/10/31 01:17:30;;;;;;;;;3.00;2.00;;;;;19.44;53.11;100355.31;5097639;27;45336;-67
2021/10/31 01:20:13;;;;;;;;;2.67;2.67;;;;;19.43;53.19;100354.44;5097873;27;45357;-67
2021/10/31 01:23:16;;;;;;;;;3.00;2.33;;;;;19.43;53.27;100358.91;5097952;27;45317;-66
2021/10/31 01:26:26;;;;;;;;;3.67;2.67;;;;;19.44;53.20;100357.97;5096860;27;45532;-66
2021/10/31 01:29:04;;;;;;;;;2.00;2.00;;;;;19.43;53.02;100353.56;5074695;28;45510;-66
2021/10/31 01:32:04;;;;;;;;;3.33;3.00;;;;;19.42;53.08;100363.34;5075054;28;45346;-66
2021/10/31 01:35:00;;;;;;;;;1.67;1.67;;;;;19.42;53.15;100351.81;5074770;28;45539;-66
2021/10/31 01:37:47;;;;;;;;;1.00;1.00;;;;;19.41;53.71;100350.94;5074559;28;46400;-66
2021/10/31 01:40:24;;;;;;;;;2.00;2.00;;;;;19.41;53.33;100348.28;5074705;28;45359;-67
2021/10/31 01:43:22;;;;;;;;;2.33;2.33;;;;;19.42;53.29;100338.47;5074823;28;45388;-67
2021/10/31 01:46:11;;;;;;;;;3.00;3.00;;;;;19.41;53.11;100332.28;5074861;28;45546;-66
2021/10/31 01:48:36;;;;;;;;;2.00;2.00;;;;;19.41;53.23;100323.41;5074731;28;47024;-66
2021/10/31 01:51:12;;;;;;;;;3.00;3.00;;;;;19.41;53.22;100324.31;5074721;28;45498;-66
2021/10/31 01:53:59;;;;;;;;;2.00;2.00;;;;;19.42;53.29;100325.16;5074897;28;45440;-66
2021/10/31 01:56:27;;;;;;;;;3.00;2.33;;;;;19.41;53.14;100320.75;5074749;28;45403;-65
2021/10/31 01:59:08;;;;;;;;;2.00;2.00;;;;;19.41;53.23;100323.41;5071070;28;47148;-66
2021/10/31 02:01:35;;;;;;;;;1.00;1.00;;;;;19.40;53.45;100322.53;5056345;28;45502;-66
2021/10/31 02:04:05;;;;;;;;;2.00;2.00;;;;;19.41;53.33;100312.75;5056471;28;45261;-66
2021/10/31 02:06:34;;;;;;;;;2.00;2.00;;;;;19.40;53.08;100313.66;5056546;28;45256;-66
2021/10/31 02:09:00;;;;;;;;;3.33;2.00;;;;;19.41;53.23;100310.97;5056321;28;45342;-65
2021/10/31 02:11:27;;;;;;;;;2.00;1.33;;;;;19.41;53.28;100308.31;5056173;28;45322;-66
2021/10/31 02:13:53;;;;;;;;;2.00;2.00;;;;;19.41;53.23;100307.44;5056354;28;45306;-67
2021/10/31 02:16:20;;;;;;;;;1.00;1.00;;;;;19.41;53.23;100312.75;5056512;28;45375;-66
2021/10/31 02:18:46;;;;;;;;;1.33;1.33;;;;;19.41;53.23;100308.31;5056036;28;46359;-67
2021/10/31 02:21:17;;;;;;;;;2.00;2.00;;;;;19.40;53.00;100301.22;5056057;28;45560;-66
2021/10/31 02:23:44;;;;;;;;;2.33;2.00;;;;;19.41;53.03;100304.75;5056248;28;45234;-66
2021/10/31 02:26:09;;;;;;;;;2.00;2.00;;;;;19.42;53.27;100306.50;5056402;28;45480;-66
2021/10/31 02:28:38;;;;;;;;;3.00;1.33;;;;;19.41;53.22;100307.44;5055991;28;46277;-66
2021/10/31 02:31:03;;;;;;;;;2.00;2.00;;;;;19.41;53.14;100304.75;5056241;28;45454;-67
2021/10/31 02:33:29;;;;;;;;;3.33;1.67;;;;;19.41;53.12;100300.31;5064150;27;45404;-65
2021/10/31 02:35:55;;;;;;;;;3.00;2.00;;;;;19.41;52.97;100302.97;5099064;27;45235;-66
2021/10/31 02:38:20;;;;;;;;;2.00;2.00;;;;;19.41;53.23;100296.75;5100121;27;46163;-67
2021/10/31 02:40:46;;;;;;;;;2.33;2.33;;;;;19.40;52.97;100290.56;5100159;27;45496;-66
2021/10/31 02:43:11;;;;;;;;;2.00;2.00;;;;;19.40;53.22;100289.66;5100350;27;45439;-67
2021/10/31 02:45:36;;;;;;;;;1.33;1.33;;;;;19.40;52.99;100279.00;5100533;27;45523;-66
2021/10/31 02:48:07;;;;;;;;;3.00;3.00;;;;;19.41;53.17;100272.78;5100153;27;46183;-66
2021/10/31 02:50:40;;;;;;;;;1.00;1.00;;;;;19.40;53.28;100274.56;5099825;27;45479;-66
2021/10/31 02:53:24;;;;;;;;;2.00;2.00;;;;;19.39;53.00;100264.84;5100306;27;45301;-66
2021/10/31 02:56:11;;;;;;;;;3.67;2.00;;;;;19.40;53.09;100263.00;5100692;27;46139;-66
2021/10/31 02:59:04;;;;;;;;;3.33;3.00;;;;;19.40;53.22;100257.69;5099897;27;47053;-66
2021/10/31 03:01:31;;;;;;;;;2.00;2.00;;;;;19.40;53.15;100265.69;5099696;27;45337;-65
2021/10/31 03:03:57;;;;;;;;;4.00;3.00;;;;;19.39;53.12;100251.50;5099841;27;45411;-65
2021/10/31 03:06:23;;;;;;;;;3.00;3.00;;;;;19.39;53.15;100258.63;5100127;27;45440;-66
2021/10/31 03:08:49;;;;;;;;;2.00;2.00;;;;;19.39;53.02;100254.16;5099727;27;47048;-65
2021/10/31 03:11:14;;;;;;;;;2.33;2.33;;;;;19.40;53.08;100249.69;5099654;27;45227;-66
2021/10/31 03:13:41;;;;;;;;;1.33;1.33;;;;;19.39;52.93;100231.97;5099855;27;45455;-65
2021/10/31 03:16:08;;;;;;;;;3.00;2.00;;;;;19.40;52.89;100228.38;5100364;27;45232;-64
2021/10/31 03:18:35;;;;;;;;;3.00;2.00;;;;;19.40;53.10;100215.03;5099328;27;47225;-64
2021/10/31 03:21:00;;;;;;;;;1.67;1.67;;;;;19.39;52.90;100222.19;5099625;27;45443;-65
2021/10/31 03:23:26;;;;;;;;;2.67;2.67;;;;;19.39;52.96;100218.63;5099772;27;45368;-65
2021/10/31 03:25:52;;;;;;;;;3.67;2.00;;;;;19.39;53.09;100219.53;5099415;27;45488;-65
2021/10/31 03:28:17;;;;;;;;;2.67;2.67;;;;;19.38;52.88;100216.88;5099414;27;47400;-65
2021/10/31 03:30:42;;;;;;;;;3.00;1.67;;;;;19.39;53.02;100213.31;5099203;27;45448;-64
2021/10/31 03:33:08;;;;;;;;;2.00;2.00;;;;;19.35;52.70;100207.19;5099945;27;45786;-64
2021/10/31 03:35:33;;;;;;;;;3.00;3.00;;;;;19.40;52.81;100212.38;5099597;27;45291;-65
2021/10/31 03:37:59;;;;;;;;;4.00;2.00;;;;;19.39;52.92;100213.31;5098994;27;47035;-65
2021/10/31 03:40:24;;;;;;;;;2.00;2.00;;;;;19.39;52.88;100207.97;5099285;27;45371;-66
2021/10/31 03:42:50;;;;;;;;;3.00;2.00;;;;;19.39;53.05;100202.66;5099604;27;45405;-65
2021/10/31 03:45:16;;;;;;;;;1.00;1.00;;;;;19.35;52.86;100193.88;5099513;27;45324;-67
2021/10/31 03:47:46;;;;;;;;;1.67;1.67;;;;;19.39;52.91;100202.66;5098183;27;47090;-65
2021/10/31 03:50:13;;;;;;;;;3.00;3.00;;;;;19.38;52.99;100201.75;5099305;27;45370;-67
2021/10/31 03:52:39;;;;;;;;;1.67;1.67;;;;;19.38;52.88;100211.53;5099338;27;45360;-66
2021/10/31 03:55:05;;;;;;;;;2.00;2.00;;;;;19.39;52.98;100215.97;5099121;27;45370;-67
2021/10/31 03:57:30;;;;;;;;;2.00;2.00;;;;;19.38;52.96;100198.22;5098994;27;46200;-67
2021/10/31 03:59:55;;;;;;;;;2.33;2.00;;;;;19.37;52.83;100193.81;5098924;27;45347;-67
2021/10/31 04:02:21;;;;;;;;;4.33;3.00;;;;;19.38;52.94;100200.88;5098937;27;45320;-66
2021/10/31 04:04:46;;;;;;;;;2.33;2.33;;;;;19.38;52.91;100190.22;5099097;27;45305;-67
2021/10/31 04:07:12;;;;;;;;;3.00;3.00;;;;;19.37;52.84;100192.03;5099027;27;46925;-67
2021/10/31 04:09:37;;;;;;;;;3.00;3.00;;;;;19.36;52.81;100184.94;5099138;27;45304;-67
2021/10/31 04:12:03;;;;;;;;;2.00;2.00;;;;;19.35;52.85;100174.34;5098814;27;45324;-66
2021/10/31 04:14:28;;;;;;;;;3.33;3.33;;;;;19.37;52.92;100180.50;5099032;27;45456;-67
2021/10/31 04:16:54;;;;;;;;;5.33;2.67;;;;;19.36;52.66;100176.06;5098500;27;47115;-66
2021/10/31 04:19:19;;;;;;;;;3.00;2.33;;;;;19.38;52.76;100174.22;5098763;27;45577;-67
2021/10/31 04:21:45;;;;;;;;;4.33;2.00;;;;;19.35;52.90;100167.22;5098859;27;45612;-65
2021/10/31 04:24:10;;;;;;;;;3.00;2.00;;;;;19.36;52.63;100176.06;5098894;27;45306;-65
2021/10/31 04:26:35;;;;;;;;;3.67;3.67;;;;;19.36;52.88;100162.75;5098410;27;46908;-66
2021/10/31 04:29:01;;;;;;;;;3.00;3.00;;;;;19.36;52.63;100160.09;5098446;27;45289;-67
2021/10/31 04:31:26;;;;;;;;;5.00;3.33;;;;;19.35;52.94;100161.00;5098596;27;45447;-65
2021/10/31 04:33:51;;;;;;;;;2.00;2.00;;;;;19.35;52.75;100158.34;5098629;27;45436;-65
2021/10/31 04:36:18;;;;;;;;;3.00;2.00;;;;;19.36;52.93;100160.09;5098428;27;46058;-67
2021/10/31 04:38:46;;;;;;;;;2.33;2.00;;;;;19.37;52.81;100156.50;5098530;27;45326;-66
2021/10/31 04:41:11;;;;;;;;;3.00;2.00;;;;;19.35;52.67;100143.25;5098409;27;45334;-65
2021/10/31 04:43:39;;;;;;;;;3.67;3.00;;;;;19.35;52.80;100153.00;5098699;27;45584;-66
2021/10/31 04:46:04;;;;;;;;;2.00;1.00;;;;;19.35;52.50;100158.34;5098047;27;47265;-67
2021/10/31 04:48:29;;;;;;;;;5.00;3.00;;;;;19.35;52.94;100161.00;5098080;27;45467;-66
2021/10/31 04:50:55;;;;;;;;;4.00;3.00;;;;;19.35;52.82;100163.69;5098407;27;45470;-67
2021/10/31 04:53:21;;;;;;;;;3.00;3.00;;;;;19.35;52.57;100147.69;5131621;27;45541;-67
2021/10/31 04:55:46;;;;;;;;;2.00;2.00;;;;;19.33;52.73;100145.94;5098303;27;46237;-65
2021/10/31 04:58:11;;;;;;;;;2.00;2.00;;;;;19.34;52.88;100130.81;5097743;27;45458;-66
2021/10/31 05:00:38;;;;;;;;;3.00;3.00;;;;;19.35;52.78;100131.69;5098492;27;45487;-66
2021/10/31 05:03:03;;;;;;;;;2.67;2.67;;;;;19.34;52.57;100120.16;5098014;27;45395;-65
2021/10/31 05:05:30;;;;;;;;;3.00;3.00;;;;;19.35;52.77;100121.03;5097785;27;47123;-66
2021/10/31 05:07:56;;;;;;;;;2.33;2.33;;;;;19.34;52.66;100114.81;5098047;27;45402;-66
2021/10/31 05:10:23;;;;;;;;;2.67;2.67;;;;;19.33;52.73;100100.63;5097953;27;45372;-65
2021/10/31 05:12:49;;;;;;;;;3.33;3.00;;;;;19.33;52.85;100103.28;5098022;27;45381;-66
2021/10/31 05:15:15;;;;;;;;;2.00;2.00;;;;;19.32;52.74;100090.91;5097518;27;46187;-67
2021/10/31 05:17:41;;;;;;;;;1.67;1.67;;;;;19.29;52.98;100074.97;5098024;27;45325;-66
2021/10/31 05:20:08;;;;;;;;;4.67;3.00;;;;;19.33;52.73;100086.44;5098090;27;45523;-66
2021/10/31 05:22:35;;;;;;;;;4.00;3.00;;;;;19.32;52.60;100085.56;5097926;27;45385;-66
2021/10/31 05:25:01;;;;;;;;;4.00;2.00;;;;;19.32;52.93;100077.56;5097477;27;47051;-66
2021/10/31 05:27:26;;;;;;;;;2.00;2.00;;;;;19.32;52.59;100068.69;5097615;27;45451;-65
2021/10/31 05:29:52;;;;;;;;;3.00;2.67;;;;;19.33;52.87;100067.78;5097711;27;45453;-67
2021/10/31 05:32:17;;;;;;;;;1.00;1.00;;;;;19.33;52.59;100070.47;5097724;27;45324;-67
2021/10/31 05:34:43;;;;;;;;;4.33;3.00;;;;;19.32;52.80;100064.25;5097227;27;47258;-66
2021/10/31 05:37:09;;;;;;;;;3.00;2.33;;;;;19.32;52.53;100064.25;5097785;27;45265;-65
2021/10/31 05:39:34;;;;;;;;;4.33;3.00;;;;;19.33;52.58;100060.66;5096318;27;45254;-66
2021/10/31 05:41:59;;;;;;;;;3.67;2.33;;;;;19.32;52.76;100058.03;5097685;27;45219;-65
2021/10/31 05:44:25;;;;;;;;;2.33;2.33;;;;;19.32;52.68;100053.59;5097335;27;46153;-66
2021/10/31 05:46:50;;;;;;;;;3.00;3.00;;;;;19.33;52.61;100044.66;5097302;27;45435;-65
2021/10/31 05:49:16;;;;;;;;;2.33;2.33;;;;;19.32;52.63;100040.25;5097411;27;45744;-66
2021/10/31 05:51:42;;;;;;;;;4.00;3.00;;;;;19.32;52.54;100052.72;5097569;27;45509;-66
2021/10/31 05:54:08;;;;;;;;;4.00;3.00;;;;;19.31;52.82;100051.81;5097426;27;45965;-67
2021/10/31 05:56:34;;;;;;;;;2.00;2.00;;;;;19.32;52.77;100044.72;5097217;27;45491;-67
2021/10/31 05:58:59;;;;;;;;;3.67;3.00;;;;;19.31;52.57;100038.50;5097221;27;45425;-66
2021/10/31 06:01:25;;;;;;;;;3.00;3.00;;;;;19.31;52.46;100033.19;5097037;27;45476;-67
2021/10/31 06:03:50;;;;;;;;;2.67;2.67;;;;;19.31;52.49;100035.00;5097142;27;46696;-67
2021/10/31 06:06:21;;;;;;;;;3.00;3.00;;;;;19.32;52.48;100036.72;5097001;27;45382;-66
2021/10/31 06:08:47;;;;;;;;;3.00;3.00;;;;;19.31;52.66;100019.84;5097244;27;45544;-67
2021/10/31 06:11:13;;;;;;;;;4.00;2.67;;;;;19.32;52.79;100015.41;5099736;27;45363;-65
2021/10/31 06:13:39;;;;;;;;;3.67;3.67;;;;;19.31;52.63;100009.19;5100858;27;45507;-66
2021/10/31 06:16:06;;;;;;;;;3.00;3.00;;;;;19.31;52.59;100011.84;5100647;27;45288;-67
2021/10/31 06:18:31;;;;;;;;;2.00;2.00;;;;;19.32;52.74;100013.63;5100555;27;45233;-65
2021/10/31 06:20:57;;;;;;;;;3.00;3.00;;;;;19.31;52.61;100017.19;5100902;27;45237;-65
2021/10/31 06:23:22;;;;;;;;;3.00;3.00;;;;;19.30;52.58;100010.13;5100520;27;46040;-65
2021/10/31 06:25:47;;;;;;;;;3.00;3.00;;;;;19.30;52.53;100012.78;5100355;27;45503;-66
2021/10/31 06:28:13;;;;;;;;;4.00;2.67;;;;;19.31;52.77;100011.84;5100800;27;45381;-66
2021/10/31 06:30:38;;;;;;;;;2.00;2.00;;;;;19.31;52.87;100017.19;5100715;27;45300;-66
2021/10/31 06:33:03;;;;;;;;;3.00;3.00;;;;;19.31;52.53;100011.00;5100273;27;46317;-67
2021/10/31 06:35:29;;;;;;;;;4.00;2.33;;;;;19.30;52.73;99999.47;5100196;27;45423;-67
2021/10/31 06:37:54;;;;;;;;;3.00;3.00;;;;;19.30;52.69;99987.94;5100271;27;45472;-66
2021/10/31 06:40:19;;;;;;;;;6.67;3.00;;;;;19.30;52.61;99988.81;5100660;27;45185;-65
2021/10/31 06:42:45;;;;;;;;;2.00;2.00;;;;;19.30;52.74;99978.16;5099388;27;48476;-66
2021/10/31 06:45:10;;;;;;;;;3.00;3.00;;;;;19.30;52.54;99969.28;5100151;27;45334;-65
2021/10/31 06:47:36;;;;;;;;;2.00;2.00;;;;;19.30;52.81;99967.50;5100602;27;45213;-66
2021/10/31 06:50:03;;;;;;;;;4.00;2.67;;;;;19.30;52.38;99958.63;5100524;27;45601;-66
2021/10/31 06:52:28;;;;;;;;;2.33;2.33;;;;;19.29;52.63;99963.06;5099992;27;46964;-66
2021/10/31 06:54:54;;;;;;;;;3.33;2.67;;;;;19.30;52.68;99974.59;5099896;27;45422;-65
2021/10/31 06:57:20;;;;;;;;;3.00;3.00;;;;;19.30;52.63;99975.50;5098537;27;45447;-65
2021/10/31 06:59:46;;;;;;;;;2.33;2.33;;;;;19.31;52.58;99965.72;5100304;27;45439;-64
2021/10/31 07:02:11;;;;;;;;;1.67;1.67;;;;;19.32;52.65;99960.31;5099625;27;46373;-64
2021/10/31 07:04:37;;;;;;;;;4.00;3.00;;;;;19.31;52.46;99947.91;5099481;27;45359;-64
2021/10/31 07:07:02;;;;;;;;;3.00;2.00;;;;;19.31;52.58;99937.25;5099819;27;45265;-63
2021/10/31 07:09:28;;;;;;;;;2.33;2.33;;;;;19.32;52.77;99930.13;5100055;27;45435;-64
2021/10/31 07:11:54;;;;;;;;;6.33;2.00;;;;;19.31;52.77;99929.25;5098925;27;45264;-65
2021/10/31 07:14:20;;;;;;;;;2.67;2.67;;;;;19.32;52.51;99935.47;5099185;27;45340;-64
2021/10/31 07:16:46;;;;;;;;;2.33;2.33;;;;;19.33;52.64;99945.22;5099423;27;45234;-64
2021/10/31 07:19:11;;;;;;;;;2.00;2.00;;;;;19.32;52.75;99939.00;5100078;27;45264;-66
2021/10/31 07:21:37;;;;;;;;;2.67;2.00;;;;;19.31;52.52;99934.59;5098417;27;46123;-65
2021/10/31 07:24:05;;;;;;;;;3.00;2.33;;;;;19.32;52.59;99928.34;5099436;27;45381;-65
2021/10/31 07:26:30;;;;;;;;;2.00;2.00;;;;;19.32;52.46;99935.47;5099451;27;45311;-64
2021/10/31 07:28:56;;;;;;;;;3.00;2.00;;;;;19.32;52.67;99935.47;5099735;27;45369;-65
2021/10/31 07:31:23;;;;;;;;;2.00;2.00;;;;;19.32;52.51;99936.34;5099161;27;46078;-65
2021/10/31 07:33:48;;;;;;;;;2.00;1.00;;;;;19.32;52.52;99936.34;5098823;27;45534;-64
2021/10/31 07:36:14;;;;;;;;;4.00;2.33;;;;;19.32;52.63;99924.81;5099322;27;45411;-65
2021/10/31 07:38:41;;;;;;;;;2.67;2.67;;;;;19.31;52.71;99910.59;5099582;27;45423;-65
2021/10/31 07:41:07;;;;;;;;;2.00;2.00;;;;;19.33;52.81;99918.56;5099120;27;46545;-65
2021/10/31 07:43:32;;;;;;;;;3.00;2.00;;;;;19.33;52.59;99911.41;5098919;27;45383;-65
2021/10/31 07:45:58;;;;;;;;;3.00;3.00;;;;;19.32;52.76;99920.34;5099414;27;45825;-64
2021/10/31 07:48:24;;;;;;;;;2.00;2.00;;;;;19.32;52.67;99922.13;5099253;27;45356;-64
2021/10/31 07:50:49;;;;;;;;;2.00;2.00;;;;;19.33;52.58;99919.41;5098932;27;46894;-65
2021/10/31 07:53:15;;;;;;;;;3.00;2.00;;;;;19.34;52.51;99912.31;5098671;27;45382;-65
2021/10/31 07:55:44;;;;;;;;;1.33;1.33;;;;;19.34;52.82;99912.31;5099360;27;45360;-65
2021/10/31 07:58:10;;;;;;;;;2.67;2.00;;;;;19.32;52.69;99909.69;5099254;27;45305;-64
2021/10/31 08:00:36;;;;;;;;;2.00;2.00;;;;;19.32;52.43;99891.03;5098694;27;46928;-65
2021/10/31 08:03:01;;;;;;;;;2.00;2.00;;;;;19.31;52.57;99885.78;5098519;27;45509;-65
2021/10/31 08:05:27;;;;;;;;;2.67;2.67;;;;;19.32;52.79;99880.38;5099012;27;45885;-65
2021/10/31 08:07:54;;;;;;;;;2.00;2.00;;;;;19.33;52.51;99876.78;5099169;27;45311;-65
2021/10/31 08:10:20;;;;;;;;;3.00;3.00;;;;;19.33;52.74;99879.44;5098398;27;47120;-64
2021/10/31 08:12:46;;;;;;;;;2.00;2.00;;;;;19.32;52.61;99875.06;5098456;27;45391;-64
2021/10/31 08:15:12;;;;;;;;;4.00;2.00;;;;;19.32;52.56;99869.72;5098737;27;45278;-63
2021/10/31 08:17:38;;;;;;;;;2.00;2.00;;;;;19.33;52.55;99876.78;5099130;27;45511;-64
2021/10/31 08:20:05;;;;;;;;;2.67;2.00;;;;;19.33;52.71;99860.78;5098633;27;47034;-67
2021/10/31 08:22:30;;;;;;;;;4.00;4.00;;;;;19.35;52.47;99870.53;5098273;27;45723;-66
2021/10/31 08:24:55;;;;;;;;;3.67;2.00;;;;;19.33;52.57;99858.13;5098548;27;45266;-64
2021/10/31 08:27:21;;;;;;;;;2.00;2.00;;;;;19.34;52.97;99851.00;5098633;27;45370;-64
2021/10/31 08:29:47;;;;;;;;;2.33;2.33;;;;;19.34;52.55;99859.00;5098386;27;46271;-64
2021/10/31 08:32:14;;;;;;;;;3.00;3.00;;;;;19.35;52.56;99857.22;5097965;27;45454;-63
2021/10/31 08:34:40;;;;;;;;;3.00;2.00;;;;;19.35;52.48;99849.22;5097471;27;45371;-63
2021/10/31 08:37:05;;;;;;;;;2.00;2.00;;;;;19.35;52.73;99843.91;5098570;27;45357;-64
2021/10/31 08:39:31;;;;;;;;;3.00;3.00;;;;;19.33;52.63;99833.28;5098041;27;46136;-63
2021/10/31 08:41:57;;;;;;;;;2.33;2.33;;;;;19.33;52.73;99834.16;5098331;27;45402;-62
2021/10/31 08:44:23;;;;;;;;;4.00;2.33;;;;;19.34;52.86;99824.38;5098102;27;45287;-62
2021/10/31 08:46:48;;;;;;;;;3.00;3.00;;;;;19.33;52.63;99814.66;5098613;27;45229;-64
2021/10/31 08:49:15;;;;;;;;;2.67;2.67;;;;;19.32;52.59;99808.44;5096446;27;48287;-66
2021/10/31 08:51:41;;;;;;;;;2.00;2.00;;;;;19.35;52.69;99811.91;5098120;27;45401;-63
2021/10/31 08:54:06;;;;;;;;;2.00;2.00;;;;;19.33;52.77;99804.84;5098116;27;45320;-63
2021/10/31 08:56:31;;;;;;;;;1.67;1.67;;;;;19.33;52.86;99804.00;5098282;27;45146;-63
2021/10/31 08:58:57;;;;;;;;;4.00;2.00;;;;;19.33;53.00;99790.66;5098112;27;46234;-63
2021/10/31 09:01:23;;;;;;;;;4.00;2.00;;;;;19.32;52.90;99767.59;5096338;27;45427;-65
2021/10/31 09:03:52;;;;;;;;;3.00;3.00;;;;;19.30;52.60;99762.31;5097876;27;45367;-65
2021/10/31 09:06:19;;;;;;;;;2.67;2.67;;;;;19.35;53.04;99766.63;5097610;27;45321;-65
2021/10/31 09:08:45;;;;;;;;;2.33;2.33;;;;;19.35;52.98;99766.63;5097719;27;47037;-64
2021/10/31 09:11:10;;;;;;;;;2.33;2.33;;;;;19.37;53.03;99763.00;5086140;27;45371;-64
2021/10/31 09:13:37;;;;;;;;;4.00;3.00;;;;;19.37;52.81;99759.44;5066411;28;45239;-67
2021/10/31 09:16:03;;;;;;;;;3.00;3.00;;;;;19.38;53.00;99746.06;5077303;28;45484;-62
2021/10/31 09:18:30;;;;;;;;;3.00;2.00;;;;;19.39;52.88;99746.94;5076692;28;47004;-64
2021/10/31 09:20:56;;;;;;;;;3.00;3.00;;;;;19.39;52.78;99731.81;5077342;28;45400;-65
2021/10/31 09:23:21;;;;;;;;;4.00;3.00;;;;;19.39;52.74;99723.81;5077158;28;45412;-64
2021/10/31 09:25:46;;;;;;;;;4.00;4.00;;;;;19.39;52.93;99728.28;5077173;27;45342;-65
2021/10/31 09:28:12;;;;;;;;;3.67;2.00;;;;;19.39;52.78;99728.28;5076835;28;47290;-63
2021/10/31 09:30:40;;;;;;;;;2.67;2.00;;;;;19.38;52.80;99727.41;5077011;28;45329;-65
2021/10/31 09:33:07;;;;;;;;;4.00;2.67;;;;;19.39;52.88;99733.59;5077462;28;45811;-63
2021/10/31 09:35:41;;;;;;;;;2.67;2.67;;;;;19.38;52.77;99737.19;5076970;27;45488;-66
2021/10/31 09:38:07;;;;;;;;;2.67;2.67;;;;;19.38;53.04;99729.19;5076934;27;46420;-66
2021/10/31 09:40:34;;;;;;;;;4.00;2.00;;;;;19.38;53.10;99716.75;5076672;28;45476;-64
2021/10/31 09:43:02;;;;;;;;;2.00;1.67;;;;;19.38;52.90;99714.09;5076967;28;45380;-65
2021/10/31 09:45:29;;;;;;;;;2.00;2.00;;;;;19.38;52.90;99705.22;5075832;28;45247;-64
2021/10/31 09:47:57;;;;;;;;;1.33;1.33;;;;;19.39;52.82;99693.63;5076445;28;46501;-65
2021/10/31 09:50:25;;;;;;;;;3.33;3.00;;;;;19.39;52.81;99681.19;5076918;28;45456;-65
2021/10/31 09:52:51;;;;;;;;;3.00;2.67;;;;;19.39;52.97;99675.00;5076873;28;45372;-65
2021/10/31 09:55:17;;;;;;;;;2.00;2.00;;;;;19.39;52.78;99670.53;5076739;27;45501;-65
2021/10/31 09:57:42;;;;;;;;;2.33;2.00;;;;;19.39;53.00;99673.19;5092541;27;48073;-64
2021/10/31 10:00:09;;;;;;;;;2.00;2.00;;;;;19.41;52.82;99657.16;5076856;28;45317;-65
2021/10/31 10:05:27;;;;;;;;;2.67;2.00;;;;;19.40;52.98;99653.59;5033858;28;45462;-64
2021/10/31 10:08:09;;;;;;;;;2.00;2.00;;;;;19.39;52.84;99649.22;5033722;28;46344;-64
2021/10/31 10:10:44;;;;;;;;;2.00;2.00;;;;;19.39;52.70;99643.88;5033713;28;45391;-65
2021/10/31 10:13:28;;;;;;;;;2.67;2.67;;;;;19.40;52.98;99645.59;5033937;28;45538;-65
2021/10/31 10:16:22;;;;;;;;;2.67;2.67;;;;;19.41;52.82;99635.81;5033893;28;45391;-63
2021/10/31 10:18:48;;;;;;;;;2.00;2.00;;;;;19.39;52.85;99627.91;5033582;28;46062;-65
2021/10/31 10:21:15;;;;;;;;;1.67;1.67;;;;;19.39;53.01;99621.69;5033718;28;45440;-64
2021/10/31 10:23:52;;;;;;;;;2.00;2.00;;;;;19.39;52.97;99627.03;5033603;28;45505;-63
2021/10/31 10:26:42;;;;;;;;;2.00;2.00;;;;;19.37;53.17;99605.78;5033813;28;45241;-65
2021/10/31 10:29:20;;;;;;;;;3.00;3.00;;;;;19.37;53.07;99603.09;5033634;28;46411;-65
2021/10/31 10:31:58;;;;;;;;;2.00;2.00;;;;;19.39;53.22;99595.03;5033151;28;45434;-64
2021/10/31 10:34:35;;;;;;;;;3.00;2.00;;;;;19.38;53.06;99598.63;5033332;28;45382;-64
2021/10/31 10:37:17;;;;;;;;;2.00;2.00;;;;;19.38;53.42;99593.28;5033936;28;45573;-65
2021/10/31 10:39:45;;;;;;;;;2.00;1.00;;;;;19.32;53.52;99584.63;5033335;28;47161;-64
2021/10/31 10:42:19;;;;;;;;;1.00;1.00;;;;;19.27;53.81;99585.72;5050516;28;45378;-65
2021/10/31 10:44:44;;;;;;;;;2.00;2.00;;;;;19.23;53.71;99584.94;5075522;28;45499;-65
2021/10/31 10:47:18;;;;;;;;;2.00;2.00;;;;;19.22;53.93;99572.56;5076683;27;45267;-64
2021/10/31 10:49:45;;;;;;;;;5.67;3.00;;;;;19.17;54.31;99575.41;5076044;27;46132;-64
2021/10/31 10:52:30;;;;;;;;;2.00;2.00;;;;;19.15;54.61;99579.03;5075921;28;45468;-63
2021/10/31 10:55:18;;;;;;;;;2.00;2.00;;;;;19.14;54.64;99558.63;5075941;28;45268;-65
2021/10/31 10:57:48;;;;;;;;;2.00;2.00;;;;;19.13;54.76;99562.22;5079029;28;45416;-64
2021/10/31 11:00:24;;;;;;;;;3.00;2.33;;;;;19.12;55.00;99571.13;5079164;27;46234;-64
2021/10/31 11:03:01;;;;;;;;;1.67;1.67;;;;;19.15;55.03;99573.72;5079105;27;45366;-66
2021/10/31 11:05:37;;;;;;;;;3.33;2.00;;;;;19.17;55.08;99569.19;5079128;28;45407;-65
2021/10/31 11:08:11;;;;;;;;;2.00;2.00;;;;;19.19;55.25;99556.69;5079504;28;45381;-64
2021/10/31 11:10:47;;;;;;;;;3.67;1.67;;;;;19.19;55.22;99565.56;5078942;27;46380;-66
2021/10/31 11:13:13;;;;;;;;;2.00;2.00;;;;;19.21;54.71;99558.38;5095004;27;45382;-65
2021/10/31 11:15:39;;;;;;;;;2.33;1.67;;;;;19.24;54.64;99564.50;5078933;28;45420;-65
2021/10/31 11:18:06;;;;;;;;;2.00;2.00;;;;;19.25;54.96;99559.13;5079729;28;45477;-66
2021/10/31 11:20:35;;;;;;;;;1.67;1.67;;;;;19.25;54.58;99545.78;5079042;27;47073;-65
2021/10/31 11:23:05;;;;;;;;;2.67;2.00;;;;;19.28;54.47;99537.69;5078894;28;45328;-65
2021/10/31 11:25:33;;;;;;;;;1.67;1.67;;;;;19.30;54.63;99541.19;5077658;28;45413;-65
2021/10/31 11:28:12;;;;;;;;;2.67;2.00;;;;;19.30;54.57;99538.50;5079062;28;45353;-66
2021/10/31 11:30:38;;;;;;;;;2.00;2.00;;;;;19.31;54.59;99532.25;5078703;27;46003;-66
2021/10/31 11:33:07;;;;;;;;;3.33;2.33;;;;;19.33;54.29;99534.88;5078714;27;45493;-65
2021/10/31 11:35:33;;;;;;;;;2.00;2.00;;;;;19.31;54.65;99526.91;5078944;27;45232;-65
2021/10/31 11:38:04;;;;;;;;;2.00;2.00;;;;;19.33;54.56;99519.72;5079040;27;45303;-66